KSUX/SUX METAR and TAF weather

Enter ICAO airport designator
Station Type Date Time Source
KSUX METAR 2023/05/28 02:52 UTC NOAA

KSUX 280252Z AUTO 14008KT 10SM CLR 21/02 A3006 RMK AO2 SLP176 T02060017 53004


Station Type Date Time Source
KSUX Decoded METAR 2023/05/28 02:52 UTC NOAA

SIOUX GATEWAY AIRPORT, IA, United States (KSUX) 42-23N 96-23W 338M
May 27, 2023 - 10:52 PM EDT / 2023.05.28 0252 UTC
Wind: from the SE (140 degrees) at 9 MPH (8 KT):0
Visibility: 10 mile(s):0
Sky conditions: clear
Temperature: 69.1 F (20.6 C)
Dew Point: 35.1 F (1.7 C)
Relative Humidity: 28%
Pressure (altimeter): 30.06 in. Hg (1017 hPa)
Pressure tendency: 0.01 inches (0.4 hPa) higher than three hours ago
ob: KSUX 280252Z AUTO 14008KT 10SM CLR 21/02 A3006 RMK AO2 SLP176 T02060017 53004
cycle: 3

Station Type Date Time Source
KSUX TAF 2023/05/27 20:42 UTC NOAA

TAF
AMD KSUX 271940Z 2720/2818 14012G18KT P6SM SCT250
FM280200 14010KT P6SM FEW250
FM280800 13008KT P6SM FEW250
FM281600 15012G18KT P6SM FEW250

Example: see airport list